Time;durP1;ratioP1;P1;durP2;ratioP2;P2;SDS_P1;SDS_P2;PMS_P1;PMS_P2;Temp;Humidity;BMP_temperature;BMP_pressure;BME280_temperature;BME280_humidity;BME280_pressure;Samples;Min_cycle;Max_cycle;Signal;HPM_P1;HPM_P2
2022/08/13 00:00:44;;;;;;;6.82;6.22;;;;;;;;;;5053366;28;20028;-62
2022/08/13 00:03:13;;;;;;;6.85;6.20;;;;;;;;;;5057549;28;20090;-62
2022/08/13 00:05:39;;;;;;;6.05;5.60;;;;;;;;;;5057442;28;20033;-62
2022/08/13 00:08:04;;;;;;;6.50;5.85;;;;;;;;;;5057436;28;20032;-62
2022/08/13 00:10:30;;;;;;;6.28;5.78;;;;;;;;;;5057669;28;20021;-62
2022/08/13 00:12:56;;;;;;;7.00;6.40;;;;;;;;;;5057119;28;20100;-62
2022/08/13 00:15:25;;;;;;;6.53;5.90;;;;;;;;;;5057040;28;20124;-62
2022/08/13 00:17:50;;;;;;;7.20;6.60;;;;;;;;;;5056973;28;20017;-62
2022/08/13 00:20:17;;;;;;;7.80;6.53;;;;;;;;;;5056909;28;20079;-62
2022/08/13 00:22:43;;;;;;;7.03;6.38;;;;;;;;;;5056002;28;20020;-62
2022/08/13 00:25:09;;;;;;;6.70;6.20;;;;;;;;;;5057102;28;20033;-62
2022/08/13 00:27:35;;;;;;;7.45;6.60;;;;;;;;;;5057382;28;20376;-62
2022/08/13 00:30:01;;;;;;;7.30;6.60;;;;;;;;;;5055488;28;20037;-62
2022/08/13 00:32:29;;;;;;;8.18;6.47;;;;;;;;;;5056977;28;20100;-62
2022/08/13 00:34:59;;;;;;;7.47;6.82;;;;;;;;;;5055769;28;20033;-62
2022/08/13 00:37:25;;;;;;;8.10;6.63;;;;;;;;;;5056830;28;20520;-62
2022/08/13 00:39:51;;;;;;;6.78;6.18;;;;;;;;;;5056838;28;20033;-62
2022/08/13 00:42:23;;;;;;;6.65;6.15;;;;;;;;;;5056543;28;20032;-62
2022/08/13 00:44:49;;;;;;;8.07;7.30;;;;;;;;;;5055308;28;20484;-62
2022/08/13 00:49:59;;;;;;;8.15;7.35;;;;;;;;;;5056888;28;20032;-62
2022/08/13 00:52:30;;;;;;;7.82;7.20;;;;;;;;;;5056313;28;20041;-62
2022/08/13 00:54:59;;;;;;;8.80;8.00;;;;;;;;;;5056265;28;20032;-62
2022/08/13 00:57:24;;;;;;;8.23;7.53;;;;;;;;;;5054896;28;20405;-62
2022/08/13 00:59:51;;;;;;;8.65;7.85;;;;;;;;;;5055301;28;20040;-62
2022/08/13 01:02:20;;;;;;;9.05;8.20;;;;;;;;;;5056429;28;20025;-62
2022/08/13 01:04:46;;;;;;;8.25;7.53;;;;;;;;;;5056347;28;20025;-62
2022/08/13 01:07:13;;;;;;;8.70;7.90;;;;;;;;;;5056343;28;20028;-62
2022/08/13 01:09:39;;;;;;;9.00;8.10;;;;;;;;;;5056040;28;20033;-62
2022/08/13 01:12:05;;;;;;;7.82;7.13;;;;;;;;;;5055861;28;20024;-62
2022/08/13 01:14:32;;;;;;;8.68;7.88;;;;;;;;;;5056413;28;20059;-62
2022/08/13 01:17:01;;;;;;;9.05;8.15;;;;;;;;;;5056102;28;20017;-62
2022/08/13 01:19:26;;;;;;;9.07;8.18;;;;;;;;;;5056127;28;20062;-62
2022/08/13 01:21:51;;;;;;;9.40;8.40;;;;;;;;;;5056073;28;20021;-62
2022/08/13 01:24:17;;;;;;;9.13;8.23;;;;;;;;;;5055725;28;20025;-62
2022/08/13 01:26:43;;;;;;;10.25;8.48;;;;;;;;;;5055681;28;20423;-62
2022/08/13 01:29:08;;;;;;;9.40;8.43;;;;;;;;;;5055606;28;20449;-62
2022/08/13 01:31:35;;;;;;;10.90;9.05;;;;;;;;;;5054353;28;20090;-62
2022/08/13 01:34:01;;;;;;;10.20;9.10;;;;;;;;;;5055824;28;20036;-62
2022/08/13 01:36:27;;;;;;;10.82;9.50;;;;;;;;;;5055673;28;20025;-62
2022/08/13 01:38:53;;;;;;;10.40;8.30;;;;;;;;;;5055704;28;20032;-62
2022/08/13 01:41:21;;;;;;;11.50;9.30;;;;;;;;;;5055658;28;20369;-62
2022/08/13 01:43:46;;;;;;;10.43;9.30;;;;;;;;;;5055590;28;20040;-62
2022/08/13 01:46:12;;;;;;;10.93;9.35;;;;;;;;;;5055316;28;20028;-62
2022/08/13 01:51:26;;;;;;;11.77;10.50;;;;;;;;;;5055256;28;20509;-62
2022/08/13 01:53:53;;;;;;;11.27;9.02;;;;;;;;;;5053906;28;20104;-62
2022/08/13 01:56:21;;;;;;;12.40;9.70;;;;;;;;;;5055360;28;20025;-62
2022/08/13 01:58:50;;;;;;;13.75;11.27;;;;;;;;;;5055099;28;20017;-62
2022/08/13 02:01:17;;;;;;;11.35;10.02;;;;;;;;;;5055330;28;20030;-62
2022/08/13 02:03:48;;;;;;;10.63;9.52;;;;;;;;;;5055039;28;20051;-62
2022/08/13 02:06:13;;;;;;;13.43;9.98;;;;;;;;;;5054960;28;20025;-62
2022/08/13 02:08:40;;;;;;;11.40;10.20;;;;;;;;;;5054005;28;20023;-62
2022/08/13 02:11:06;;;;;;;10.63;9.50;;;;;;;;;;5054899;28;20108;-62
2022/08/13 02:13:31;;;;;;;10.80;9.35;;;;;;;;;;5055090;28;20091;-62
2022/08/13 02:15:57;;;;;;;11.18;9.13;;;;;;;;;;5055050;28;20025;-62
2022/08/13 02:18:23;;;;;;;9.90;8.90;;;;;;;;;;5054679;28;20029;-62
2022/08/13 02:20:58;;;;;;;9.27;8.38;;;;;;;;;;5054975;28;20068;-62
2022/08/13 02:23:25;;;;;;;9.45;8.43;;;;;;;;;;5054471;28;20040;-62
2022/08/13 02:25:51;;;;;;;8.88;7.97;;;;;;;;;;5054622;28;20013;-62
2022/08/13 02:28:18;;;;;;;8.90;8.00;;;;;;;;;;5054521;28;20085;-62
2022/08/13 02:30:45;;;;;;;9.18;8.23;;;;;;;;;;5055015;28;20465;-62
2022/08/13 02:33:11;;;;;;;11.25;7.85;;;;;;;;;;5054401;28;20041;-62
2022/08/13 02:35:37;;;;;;;8.98;8.05;;;;;;;;;;5054320;28;20032;-62
2022/08/13 02:38:03;;;;;;;8.75;7.90;;;;;;;;;;5054190;28;20028;-62
2022/08/13 02:43:14;;;;;;;8.77;7.43;;;;;;;;;;5054513;28;20033;-62
2022/08/13 02:45:39;;;;;;;8.48;7.68;;;;;;;;;;5054198;28;20017;-62
2022/08/13 02:48:08;;;;;;;8.30;7.50;;;;;;;;;;5054139;28;20028;-62
2022/08/13 02:50:41;;;;;;;10.02;7.93;;;;;;;;;;5054128;28;20048;-62
2022/08/13 02:53:07;;;;;;;9.45;7.80;;;;;;;;;;5052765;28;20580;-62
2022/08/13 02:55:33;;;;;;;9.13;8.32;;;;;;;;;;5052792;28;20127;-62
2022/08/13 02:57:59;;;;;;;9.55;8.55;;;;;;;;;;5053940;28;20029;-62
2022/08/13 03:00:24;;;;;;;8.48;7.65;;;;;;;;;;5053965;28;20499;-62
2022/08/13 03:02:50;;;;;;;9.10;8.20;;;;;;;;;;5054436;28;20037;-62
2022/08/13 03:05:17;;;;;;;9.90;8.90;;;;;;;;;;5054181;28;20021;-62
2022/08/13 03:07:44;;;;;;;9.15;8.00;;;;;;;;;;5054066;28;20025;-62
2022/08/13 03:10:13;;;;;;;9.30;8.20;;;;;;;;;;5053837;28;20380;-62
2022/08/13 03:12:44;;;;;;;11.80;8.55;;;;;;;;;;5054039;28;20029;-62
2022/08/13 03:15:10;;;;;;;9.20;8.30;;;;;;;;;;5054279;28;20032;-63
2022/08/13 03:17:36;;;;;;;9.68;8.30;;;;;;;;;;5052440;28;20079;-62
2022/08/13 03:20:02;;;;;;;10.68;8.40;;;;;;;;;;5053631;28;20035;-62
2022/08/13 03:22:28;;;;;;;8.77;7.97;;;;;;;;;;5053908;28;20458;-62
2022/08/13 03:24:54;;;;;;;9.20;8.25;;;;;;;;;;5052322;28;20017;-62
2022/08/13 03:27:19;;;;;;;8.82;8.02;;;;;;;;;;5053559;28;20023;-62
2022/08/13 03:29:44;;;;;;;10.05;8.57;;;;;;;;;;5053540;28;20029;-62
2022/08/13 03:32:10;;;;;;;9.68;8.10;;;;;;;;;;5053490;28;20021;-62
2022/08/13 03:34:36;;;;;;;10.88;8.85;;;;;;;;;;5052778;28;20090;-63
2022/08/13 03:37:01;;;;;;;10.88;9.75;;;;;;;;;;5053616;28;20048;-62
2022/08/13 03:39:29;;;;;;;14.85;11.43;;;;;;;;;;5053687;28;20044;-62
2022/08/13 03:41:55;;;;;;;16.15;12.18;;;;;;;;;;5053438;28;20059;-62
2022/08/13 03:44:21;;;;;;;16.63;12.85;;;;;;;;;;5053693;28;20021;-62
2022/08/13 03:46:47;;;;;;;15.18;12.60;;;;;;;;;;5053391;28;20017;-62
2022/08/13 03:49:13;;;;;;;16.83;12.13;;;;;;;;;;5053346;28;20369;-62
2022/08/13 03:51:39;;;;;;;17.80;13.25;;;;;;;;;;5053350;28;20041;-62
2022/08/13 03:54:05;;;;;;;16.80;12.80;;;;;;;;;;5053557;28;20533;-62
2022/08/13 03:56:31;;;;;;;18.42;13.80;;;;;;;;;;5053537;28;20055;-62
2022/08/13 03:58:56;;;;;;;20.77;14.05;;;;;;;;;;5053264;28;20491;-62
2022/08/13 04:01:21;;;;;;;22.45;15.05;;;;;;;;;;5053800;28;20017;-62
2022/08/13 04:03:47;;;;;;;20.70;15.10;;;;;;;;;;5052108;28;20025;-62
2022/08/13 04:06:19;;;;;;;21.45;15.05;;;;;;;;;;5053527;28;20035;-62
2022/08/13 04:08:46;;;;;;;23.60;16.58;;;;;;;;;;5053779;28;20439;-62
2022/08/13 04:11:13;;;;;;;24.55;16.25;;;;;;;;;;5053438;28;20017;-62
2022/08/13 04:13:40;;;;;;;22.23;15.93;;;;;;;;;;5052249;28;20033;-62
2022/08/13 04:16:07;;;;;;;21.65;15.40;;;;;;;;;;5053658;28;20028;-62
2022/08/13 04:18:35;;;;;;;23.73;16.90;;;;;;;;;;5053510;28;20033;-62
2022/08/13 04:21:01;;;;;;;21.45;14.43;;;;;;;;;;5051811;28;20087;-62
2022/08/13 04:23:27;;;;;;;20.15;15.27;;;;;;;;;;5053322;28;20025;-62
2022/08/13 04:25:54;;;;;;;19.77;15.43;;;;;;;;;;5053007;28;20023;-62
2022/08/13 04:28:21;;;;;;;20.25;14.80;;;;;;;;;;5053014;28;20029;-62
2022/08/13 04:30:46;;;;;;;21.65;16.58;;;;;;;;;;5053537;28;20045;-62
2022/08/13 04:33:14;;;;;;;21.10;15.60;;;;;;;;;;5052050;28;20068;-62
2022/08/13 04:35:40;;;;;;;20.38;15.52;;;;;;;;;;5052873;28;20021;-62
2022/08/13 04:38:06;;;;;;;19.83;15.32;;;;;;;;;;5053058;28;20074;-62
2022/08/13 04:40:35;;;;;;;20.25;15.75;;;;;;;;;;5052010;28;20041;-62
2022/08/13 04:43:02;;;;;;;21.90;16.20;;;;;;;;;;5053114;28;20061;-62
2022/08/13 04:45:27;;;;;;;23.42;15.75;;;;;;;;;;5053443;28;20029;-62
2022/08/13 04:47:54;;;;;;;20.95;15.52;;;;;;;;;;5054907;28;20025;-62
2022/08/13 04:50:19;;;;;;;20.50;15.35;;;;;;;;;;5056405;28;20123;-62
2022/08/13 04:52:45;;;;;;;21.80;16.35;;;;;;;;;;5056215;28;20409;-62
2022/08/13 04:55:12;;;;;;;20.15;15.40;;;;;;;;;;5055701;28;20029;-62
2022/08/13 04:57:38;;;;;;;21.05;15.93;;;;;;;;;;5056745;28;20016;-62
2022/08/13 05:00:06;;;;;;;23.77;15.48;;;;;;;;;;5056478;28;20033;-62
2022/08/13 05:02:31;;;;;;;21.00;14.65;;;;;;;;;;5056764;28;20047;-62
2022/08/13 05:04:58;;;;;;;21.30;15.32;;;;;;;;;;5056055;28;20100;-62
2022/08/13 05:07:23;;;;;;;21.63;15.05;;;;;;;;;;5056637;28;20019;-62
2022/08/13 05:09:49;;;;;;;22.25;14.77;;;;;;;;;;5055427;28;20037;-62
2022/08/13 05:12:14;;;;;;;21.60;15.55;;;;;;;;;;5056009;28;20102;-62
2022/08/13 05:14:40;;;;;;;20.67;15.18;;;;;;;;;;5056221;28;20033;-62
2022/08/13 05:17:07;;;;;;;22.27;15.27;;;;;;;;;;5056112;28;20059;-62
2022/08/13 05:19:32;;;;;;;19.25;14.48;;;;;;;;;;5055813;28;20059;-62
2022/08/13 05:21:58;;;;;;;21.15;14.77;;;;;;;;;;5056085;28;20044;-62
2022/08/13 05:24:23;;;;;;;20.92;15.50;;;;;;;;;;5055794;28;20029;-62
2022/08/13 05:26:49;;;;;;;19.02;14.25;;;;;;;;;;5054447;28;20025;-62
2022/08/13 05:29:14;;;;;;;22.50;16.02;;;;;;;;;;5056219;28;20029;-62
2022/08/13 05:31:40;;;;;;;20.67;14.95;;;;;;;;;;5055646;28;20523;-62
2022/08/13 05:34:06;;;;;;;22.85;16.63;;;;;;;;;;5055610;28;20040;-62
2022/08/13 05:36:31;;;;;;;23.52;16.25;;;;;;;;;;5056037;28;20377;-62
2022/08/13 05:38:58;;;;;;;23.38;17.23;;;;;;;;;;5055483;28;20447;-62
2022/08/13 05:41:25;;;;;;;23.25;16.30;;;;;;;;;;5055445;28;20381;-62
2022/08/13 05:43:51;;;;;;;24.05;16.85;;;;;;;;;;5055373;28;20416;-62
2022/08/13 05:46:16;;;;;;;23.67;17.27;;;;;;;;;;5055366;28;20107;-62
2022/08/13 05:48:55;;;;;;;21.58;16.00;;;;;;;;;;5055568;28;20029;-62
2022/08/13 05:51:24;;;;;;;20.60;16.33;;;;;;;;;;5055465;28;20538;-63
2022/08/13 05:53:54;;;;;;;20.92;15.73;;;;;;;;;;5055490;28;20031;-62
2022/08/13 05:56:21;;;;;;;21.67;15.80;;;;;;;;;;5055706;28;20016;-62
2022/08/13 05:58:47;;;;;;;19.88;14.77;;;;;;;;;;5052736;28;20427;-62
2022/08/13 06:03:57;;;;;;;19.67;15.02;;;;;;;;;;5055534;28;20039;-62
2022/08/13 06:06:22;;;;;;;19.17;13.82;;;;;;;;;;5053750;28;20017;-62
2022/08/13 06:08:48;;;;;;;20.17;14.60;;;;;;;;;;5054928;28;20067;-62
2022/08/13 06:11:17;;;;;;;19.20;13.95;;;;;;;;;;5054921;28;20063;-62
2022/08/13 06:13:44;;;;;;;18.30;13.57;;;;;;;;;;5053578;28;20017;-62
2022/08/13 06:16:10;;;;;;;16.02;12.68;;;;;;;;;;5055044;28;20017;-62
2022/08/13 06:18:37;;;;;;;16.48;12.90;;;;;;;;;;5054893;28;20048;-62
2022/08/13 06:21:04;;;;;;;15.25;12.95;;;;;;;;;;5054722;28;20017;-63
2022/08/13 06:23:30;;;;;;;12.45;10.05;;;;;;;;;;5054917;28;20087;-62
2022/08/13 06:25:57;;;;;;;12.60;10.32;;;;;;;;;;5054897;28;20025;-62
2022/08/13 06:28:25;;;;;;;10.68;9.43;;;;;;;;;;5054868;28;20028;-62
2022/08/13 06:30:53;;;;;;;11.05;8.52;;;;;;;;;;5054816;28;20461;-62
2022/08/13 06:33:21;;;;;;;8.60;7.78;;;;;;;;;;5054399;28;20036;-62
2022/08/13 06:35:51;;;;;;;8.48;7.63;;;;;;;;;;5054679;28;20465;-62
2022/08/13 06:38:17;;;;;;;8.13;7.33;;;;;;;;;;5054312;28;20079;-62
2022/08/13 06:40:44;;;;;;;7.70;6.90;;;;;;;;;;5053077;28;20384;-62
2022/08/13 06:43:10;;;;;;;7.50;6.80;;;;;;;;;;5052949;28;20481;-62
2022/08/13 06:45:36;;;;;;;6.90;6.30;;;;;;;;;;5052997;28;20488;-62
2022/08/13 06:48:02;;;;;;;6.28;5.80;;;;;;;;;;5054154;28;20033;-63
2022/08/13 06:50:27;;;;;;;5.68;5.22;;;;;;;;;;5052970;28;20035;-62
2022/08/13 06:52:54;;;;;;;5.68;5.28;;;;;;;;;;5053931;28;20128;-62
2022/08/13 06:55:20;;;;;;;4.78;4.43;;;;;;;;;;5086338;28;20040;-62
2022/08/13 06:57:46;;;;;;;4.78;4.47;;;;;;;;;;5054204;28;20469;-62
2022/08/13 07:00:12;;;;;;;5.18;4.78;;;;;;;;;;5054244;28;20025;-62
2022/08/13 07:02:40;;;;;;;4.45;4.10;;;;;;;;;;5053929;28;20013;-62
2022/08/13 07:05:06;;;;;;;4.53;4.22;;;;;;;;;;5053499;28;20049;-62
2022/08/13 07:07:32;;;;;;;4.38;4.00;;;;;;;;;;5054427;28;20028;-62
2022/08/13 07:09:58;;;;;;;4.07;3.78;;;;;;;;;;5053980;28;20025;-62
2022/08/13 07:12:24;;;;;;;3.83;3.60;;;;;;;;;;5053766;28;20025;-62
2022/08/13 07:14:49;;;;;;;4.28;3.92;;;;;;;;;;5053717;28;20044;-63
2022/08/13 07:17:15;;;;;;;4.45;4.13;;;;;;;;;;5054484;28;20020;-62
2022/08/13 07:19:41;;;;;;;4.35;3.70;;;;;;;;;;5053710;28;20025;-62
2022/08/13 07:22:07;;;;;;;4.30;4.00;;;;;;;;;;5053942;28;20131;-62
2022/08/13 07:24:32;;;;;;;4.40;4.10;;;;;;;;;;5053902;28;20061;-62
2022/08/13 07:27:07;;;;;;;4.05;3.75;;;;;;;;;;5053629;28;20104;-62
2022/08/13 07:29:35;;;;;;;4.75;4.45;;;;;;;;;;5053830;28;20126;-62
2022/08/13 07:32:02;;;;;;;4.95;4.45;;;;;;;;;;5052312;28;20103;-62
2022/08/13 07:34:31;;;;;;;4.90;4.40;;;;;;;;;;5053540;28;20115;-62
2022/08/13 07:36:56;;;;;;;5.07;4.65;;;;;;;;;;5053730;28;20532;-62
2022/08/13 07:39:22;;;;;;;5.70;5.20;;;;;;;;;;5053480;28;20102;-62
2022/08/13 07:41:48;;;;;;;5.13;4.72;;;;;;;;;;5053459;28;20014;-62
2022/08/13 07:44:21;;;;;;;5.53;5.13;;;;;;;;;;5053414;28;20029;-62
2022/08/13 07:46:48;;;;;;;6.25;5.72;;;;;;;;;;5053647;28;20047;-62
2022/08/13 07:49:14;;;;;;;5.45;5.05;;;;;;;;;;5035544;28;20075;-62
2022/08/13 07:51:42;;;;;;;5.60;5.13;;;;;;;;;;5053766;28;20419;-62
2022/08/13 07:54:08;;;;;;;5.68;5.22;;;;;;;;;;5053608;28;20031;-62
2022/08/13 07:56:34;;;;;;;5.13;4.72;;;;;;;;;;5053549;28;20128;-62
2022/08/13 07:59:01;;;;;;;5.97;5.47;;;;;;;;;;5053302;28;20104;-62
2022/08/13 08:01:27;;;;;;;5.25;4.78;;;;;;;;;;5053189;28;20523;-62
2022/08/13 08:03:56;;;;;;;5.97;5.45;;;;;;;;;;5053539;28;20051;-62
2022/08/13 08:06:21;;;;;;;5.50;5.05;;;;;;;;;;5053513;28;20412;-62
2022/08/13 08:08:47;;;;;;;5.30;4.90;;;;;;;;;;5053167;28;20021;-62
2022/08/13 08:14:00;;;;;;;5.63;5.00;;;;;;;;;;5053412;28;20041;-62
2022/08/13 08:16:30;;;;;;;5.88;5.38;;;;;;;;;;5053337;28;20383;-62
2022/08/13 08:18:56;;;;;;;;;;;;;;;;;;5053507;28;20037;-62
2022/08/13 08:21:25;;;;;;;6.43;5.82;;;;;;;;;;5053654;28;19987;-62
2022/08/13 08:23:57;;;;;;;6.65;6.05;;;;;;;;;;5056460;28;20033;-62
2022/08/13 08:26:25;;;;;;;6.15;5.63;;;;;;;;;;5056872;28;20103;-62
2022/08/13 08:28:52;;;;;;;6.47;5.75;;;;;;;;;;5056876;28;20587;-62
2022/08/13 08:31:17;;;;;;;6.15;5.65;;;;;;;;;;5056743;28;20040;-62
2022/08/13 08:33:43;;;;;;;7.43;6.38;;;;;;;;;;5057309;28;20033;-62
2022/08/13 08:36:09;;;;;;;6.72;6.13;;;;;;;;;;5056984;28;20040;-62
2022/08/13 08:44:12;;;;;;;7.80;7.00;;;;;;;;;;5056795;28;20021;-62
2022/08/13 08:46:39;;;;;;;8.55;7.75;;;;;;;;;;5056797;28;20020;-62
2022/08/13 08:49:06;;;;;;;7.85;7.05;;;;;;;;;;5056494;28;20052;-62
2022/08/13 08:51:32;;;;;;;9.57;8.68;;;;;;;;;;5055010;28;20045;-62
2022/08/13 08:53:59;;;;;;;9.77;8.68;;;;;;;;;;5056400;28;20111;-62
2022/08/13 08:56:25;;;;;;;10.02;8.98;;;;;;;;;;5056801;28;20040;-62
2022/08/13 08:58:54;;;;;;;9.50;8.60;;;;;;;;;;5056250;28;20477;-62
2022/08/13 09:01:24;;;;;;;10.57;9.48;;;;;;;;;;5056465;28;20049;-63
2022/08/13 09:03:51;;;;;;;10.40;9.40;;;;;;;;;;5056396;28;20067;-62
2022/08/13 09:06:17;;;;;;;9.93;8.70;;;;;;;;;;5056152;28;20544;-62
2022/08/13 09:08:45;;;;;;;10.25;9.05;;;;;;;;;;5056305;28;20033;-62
2022/08/13 09:11:12;;;;;;;9.90;8.98;;;;;;;;;;5056296;28;20021;-62
2022/08/13 09:13:38;;;;;;;9.30;8.40;;;;;;;;;;5055935;28;20037;-62
2022/08/13 09:16:04;;;;;;;10.10;8.77;;;;;;;;;;5056466;28;20473;-62
2022/08/13 09:18:31;;;;;;;8.05;7.32;;;;;;;;;;5056428;28;20025;-62
2022/08/13 09:20:58;;;;;;;9.05;8.13;;;;;;;;;;5056134;28;20017;-63
2022/08/13 09:23:24;;;;;;;9.60;8.35;;;;;;;;;;5056047;28;20048;-62
2022/08/13 09:25:51;;;;;;;9.70;8.20;;;;;;;;;;5055758;28;20457;-62
2022/08/13 09:28:23;;;;;;;9.40;8.40;;;;;;;;;;5055732;28;20029;-63
2022/08/13 09:30:50;;;;;;;8.57;7.72;;;;;;;;;;5055945;28;20036;-63
2022/08/13 09:33:16;;;;;;;11.07;8.98;;;;;;;;;;5055418;28;20025;-63
2022/08/13 09:35:42;;;;;;;9.52;8.63;;;;;;;;;;5055599;28;20044;-62
2022/08/13 09:38:08;;;;;;;7.90;7.10;;;;;;;;;;5055759;28;20032;-62
2022/08/13 09:40:38;;;;;;;8.30;7.45;;;;;;;;;;5055851;28;20055;-62
2022/08/13 09:43:07;;;;;;;9.65;8.40;;;;;;;;;;5055735;28;20033;-63
2022/08/13 09:45:36;;;;;;;10.93;8.88;;;;;;;;;;5054589;28;20465;-62
2022/08/13 09:48:08;;;;;;;9.80;8.80;;;;;;;;;;5055644;28;20033;-62
2022/08/13 09:50:33;;;;;;;10.95;9.85;;;;;;;;;;5055282;28;20028;-63
2022/08/13 09:53:00;;;;;;;11.02;9.60;;;;;;;;;;5053963;28;20099;-63
2022/08/13 09:55:25;;;;;;;9.95;8.90;;;;;;;;;;5055194;28;20427;-62
2022/08/13 09:57:59;;;;;;;10.43;9.43;;;;;;;;;;5053869;28;20021;-63
2022/08/13 10:00:28;;;;;;;9.88;8.77;;;;;;;;;;5055402;28;20470;-62
2022/08/13 10:02:57;;;;;;;10.30;8.60;;;;;;;;;;5055645;28;20024;-63
2022/08/13 10:05:23;;;;;;;9.50;8.60;;;;;;;;;;5055067;28;20040;-62
2022/08/13 10:07:48;;;;;;;9.88;8.88;;;;;;;;;;5055546;28;20044;-63
2022/08/13 10:10:15;;;;;;;9.90;9.00;;;;;;;;;;5053947;28;20036;-63
2022/08/13 10:12:41;;;;;;;8.93;8.05;;;;;;;;;;5055130;28;20017;-63
2022/08/13 10:15:08;;;;;;;11.18;8.70;;;;;;;;;;5055401;28;20041;-63
2022/08/13 10:17:51;;;;;;;9.25;8.35;;;;;;;;;;5054116;28;20029;-62
2022/08/13 10:20:36;;;;;;;10.32;8.25;;;;;;;;;;5053567;28;20056;-63
2022/08/13 10:23:03;;;;;;;12.85;8.52;;;;;;;;;;5054917;28;20024;-63
2022/08/13 10:25:29;;;;;;;11.10;8.90;;;;;;;;;;5055224;28;20432;-63
2022/08/13 10:27:55;;;;;;;9.48;8.57;;;;;;;;;;5053424;28;20113;-63
2022/08/13 10:30:24;;;;;;;11.77;8.95;;;;;;;;;;5055062;28;20020;-62
2022/08/13 10:32:54;;;;;;;9.55;8.73;;;;;;;;;;5054753;28;20052;-63
2022/08/13 10:35:19;;;;;;;9.88;9.02;;;;;;;;;;5054452;28;20385;-63
2022/08/13 10:37:45;;;;;;;10.60;8.20;;;;;;;;;;5054653;28;20037;-63
2022/08/13 10:40:14;;;;;;;9.73;8.82;;;;;;;;;;5054379;28;20025;-63
2022/08/13 10:42:42;;;;;;;14.00;9.38;;;;;;;;;;5054541;28;20033;-62
2022/08/13 10:45:07;;;;;;;10.65;9.68;;;;;;;;;;5054192;28;20028;-63
2022/08/13 10:47:43;;;;;;;12.25;9.90;;;;;;;;;;5054476;28;20041;-63
2022/08/13 10:50:08;;;;;;;11.35;9.85;;;;;;;;;;5054415;28;20033;-63
2022/08/13 10:52:33;;;;;;;11.05;9.80;;;;;;;;;;5054057;28;20120;-62
2022/08/13 10:55:00;;;;;;;11.75;10.07;;;;;;;;;;5054055;28;20496;-63
2022/08/13 10:57:25;;;;;;;14.00;9.70;;;;;;;;;;5053566;28;20076;-63
2022/08/13 10:59:50;;;;;;;11.25;10.10;;;;;;;;;;5054006;28;20053;-63
2022/08/13 11:02:16;;;;;;;10.60;9.45;;;;;;;;;;5053945;28;20570;-63
2022/08/13 11:04:41;;;;;;;10.38;9.30;;;;;;;;;;5054460;28;20036;-62
2022/08/13 11:07:10;;;;;;;10.15;9.15;;;;;;;;;;5054162;28;20099;-63
2022/08/13 11:09:37;;;;;;;11.77;9.15;;;;;;;;;;5053832;28;20499;-63
2022/08/13 11:12:03;;;;;;;12.65;8.90;;;;;;;;;;5053848;28;20055;-63
2022/08/13 11:14:29;;;;;;;11.25;9.82;;;;;;;;;;5054101;28;20072;-63
2022/08/13 11:16:57;;;;;;;10.43;9.32;;;;;;;;;;5053993;28;20024;-63
2022/08/13 11:19:26;;;;;;;12.23;10.95;;;;;;;;;;5054306;28;20025;-63
2022/08/13 11:21:51;;;;;;;11.60;10.35;;;;;;;;;;5054267;28;20433;-63
2022/08/13 11:24:18;;;;;;;13.23;10.48;;;;;;;;;;5053667;28;20040;-63
2022/08/13 11:26:45;;;;;;;12.20;10.27;;;;;;;;;;5052766;28;20028;-63
2022/08/13 11:29:11;;;;;;;12.90;11.30;;;;;;;;;;5053885;28;20079;-63
2022/08/13 11:31:36;;;;;;;12.80;11.55;;;;;;;;;;5053574;28;20021;-63
2022/08/13 11:34:02;;;;;;;11.93;10.73;;;;;;;;;;5054147;28;20027;-62
2022/08/13 11:36:27;;;;;;;11.75;10.55;;;;;;;;;;5053545;28;20025;-63
2022/08/13 11:38:53;;;;;;;12.10;11.00;;;;;;;;;;5053399;28;20060;-62
2022/08/13 11:41:18;;;;;;;11.30;10.27;;;;;;;;;;5053733;28;20017;-63
2022/08/13 11:43:44;;;;;;;12.23;11.02;;;;;;;;;;5053725;28;20021;-63
2022/08/13 11:46:09;;;;;;;11.15;9.95;;;;;;;;;;5053350;28;20025;-63
2022/08/13 11:48:35;;;;;;;11.15;10.02;;;;;;;;;;5053953;28;20402;-63
2022/08/13 11:51:00;;;;;;;11.32;10.25;;;;;;;;;;5051849;28;20487;-63
2022/08/13 11:53:26;;;;;;;11.80;10.63;;;;;;;;;;5053641;28;20033;-63
2022/08/13 11:55:52;;;;;;;11.68;10.45;;;;;;;;;;5052488;28;20025;-63
2022/08/13 11:58:17;;;;;;;11.85;10.25;;;;;;;;;;5057393;28;20032;-63
2022/08/13 12:00:43;;;;;;;10.65;9.55;;;;;;;;;;5057398;28;20074;-63
2022/08/13 12:03:09;;;;;;;12.20;10.90;;;;;;;;;;5056720;28;20061;-63
2022/08/13 12:05:34;;;;;;;10.63;9.55;;;;;;;;;;5057332;28;20388;-62
2022/08/13 12:08:00;;;;;;;10.27;9.25;;;;;;;;;;5057518;28;20108;-63
2022/08/13 12:10:25;;;;;;;8.57;7.70;;;;;;;;;;5057251;28;20397;-63
2022/08/13 12:12:51;;;;;;;9.90;8.95;;;;;;;;;;5057134;28;20035;-63
2022/08/13 12:15:16;;;;;;;10.68;9.57;;;;;;;;;;5057381;28;20439;-63
2022/08/13 12:17:43;;;;;;;9.80;8.80;;;;;;;;;;5055812;28;20032;-63
2022/08/13 12:20:09;;;;;;;10.98;9.07;;;;;;;;;;5057015;28;20068;-63
2022/08/13 12:22:35;;;;;;;8.77;8.05;;;;;;;;;;5057285;28;20063;-63
2022/08/13 12:25:00;;;;;;;8.82;8.07;;;;;;;;;;5057234;28;20088;-63
2022/08/13 12:27:25;;;;;;;9.20;8.30;;;;;;;;;;5057159;28;20530;-63
2022/08/13 12:29:51;;;;;;;10.63;9.63;;;;;;;;;;5057149;28;20021;-63
2022/08/13 12:32:16;;;;;;;10.02;9.00;;;;;;;;;;5057063;28;20032;-63
2022/08/13 12:34:42;;;;;;;9.20;8.32;;;;;;;;;;5057040;28;20024;-63
2022/08/13 12:37:07;;;;;;;9.90;8.88;;;;;;;;;;5057168;28;20044;-63
2022/08/13 12:39:32;;;;;;;8.93;8.13;;;;;;;;;;5056668;28;20381;-63
2022/08/13 12:41:58;;;;;;;9.48;8.40;;;;;;;;;;5056923;28;20032;-63
2022/08/13 12:44:23;;;;;;;9.18;8.25;;;;;;;;;;5056720;28;20050;-63
2022/08/13 12:46:49;;;;;;;9.15;8.20;;;;;;;;;;5057064;28;20041;-63
2022/08/13 12:49:14;;;;;;;9.80;7.97;;;;;;;;;;5056749;28;20021;-63
2022/08/13 12:51:41;;;;;;;10.02;8.70;;;;;;;;;;5056588;28;20048;-62
2022/08/13 12:54:06;;;;;;;9.65;8.27;;;;;;;;;;5056707;28;20094;-63
2022/08/13 12:56:31;;;;;;;9.90;8.65;;;;;;;;;;5056317;28;20453;-62
2022/08/13 12:58:57;;;;;;;9.40;8.50;;;;;;;;;;5056507;28;20021;-63
2022/08/13 13:01:22;;;;;;;8.57;7.88;;;;;;;;;;5056536;28;20020;-62
2022/08/13 13:03:47;;;;;;;8.80;7.82;;;;;;;;;;5056193;28;20029;-62
2022/08/13 13:06:16;;;;;;;9.13;8.30;;;;;;;;;;5056486;28;20017;-63
2022/08/13 13:08:43;;;;;;;10.63;8.27;;;;;;;;;;5055794;28;20138;-63
2022/08/13 13:11:09;;;;;;;9.30;8.60;;;;;;;;;;5056622;28;20108;-63
2022/08/13 13:13:35;;;;;;;9.35;8.55;;;;;;;;;;5056849;28;20369;-63
2022/08/13 13:16:01;;;;;;;11.30;9.80;;;;;;;;;;5038782;28;20167;-63
2022/08/13 13:18:28;;;;;;;9.45;8.65;;;;;;;;;;5056013;28;20056;-62
2022/08/13 13:20:54;;;;;;;8.65;7.68;;;;;;;;;;5056456;28;20378;-63
2022/08/13 13:23:22;;;;;;;8.85;8.10;;;;;;;;;;5054590;28;20025;-63
2022/08/13 13:25:48;;;;;;;8.88;8.07;;;;;;;;;;5056094;28;20021;-63
2022/08/13 13:28:18;;;;;;;12.20;8.68;;;;;;;;;;5056078;28;20029;-63
2022/08/13 13:30:44;;;;;;;10.20;9.25;;;;;;;;;;5055977;28;20112;-63
2022/08/13 13:33:10;;;;;;;10.75;9.75;;;;;;;;;;5055974;28;20071;-62
2022/08/13 13:35:37;;;;;;;9.77;8.77;;;;;;;;;;5056372;28;20037;-63
2022/08/13 13:38:06;;;;;;;10.05;9.20;;;;;;;;;;5056070;28;20017;-62
2022/08/13 13:40:32;;;;;;;10.68;9.63;;;;;;;;;;5055801;28;20021;-63
2022/08/13 13:42:58;;;;;;;11.20;9.15;;;;;;;;;;5055870;28;20414;-62
2022/08/13 13:45:26;;;;;;;9.95;9.15;;;;;;;;;;5055396;28;20094;-62
2022/08/13 13:47:52;;;;;;;10.70;9.55;;;;;;;;;;5055586;28;20021;-63
2022/08/13 13:50:18;;;;;;;11.02;9.90;;;;;;;;;;5055935;28;20086;-63
2022/08/13 13:52:44;;;;;;;11.25;10.18;;;;;;;;;;5055176;28;20061;-63
2022/08/13 13:55:09;;;;;;;10.95;9.82;;;;;;;;;;5055491;28;20112;-63
2022/08/13 13:57:38;;;;;;;10.45;9.38;;;;;;;;;;5055131;28;20592;-63
2022/08/13 14:00:04;;;;;;;11.30;10.30;;;;;;;;;;5055736;28;20480;-63
2022/08/13 14:02:33;;;;;;;12.98;10.70;;;;;;;;;;5055470;28;20017;-63
2022/08/13 14:05:00;;;;;;;11.02;9.73;;;;;;;;;;5055034;28;20072;-63
2022/08/13 14:07:26;;;;;;;12.07;10.23;;;;;;;;;;5055328;28;20495;-63
2022/08/13 14:09:52;;;;;;;11.20;10.07;;;;;;;;;;5055010;28;20048;-63
2022/08/13 14:12:17;;;;;;;10.13;9.15;;;;;;;;;;5054912;28;20472;-63
2022/08/13 14:14:43;;;;;;;12.30;10.05;;;;;;;;;;5054900;28;20053;-63
2022/08/13 14:17:08;;;;;;;10.50;9.43;;;;;;;;;;5054766;28;20017;-63
2022/08/13 14:19:34;;;;;;;10.48;9.57;;;;;;;;;;5053962;28;20032;-63
2022/08/13 14:21:59;;;;;;;11.55;9.57;;;;;;;;;;5054949;28;20024;-63
2022/08/13 14:24:26;;;;;;;10.45;9.32;;;;;;;;;;5053421;28;20485;-62
2022/08/13 14:26:51;;;;;;;9.52;8.63;;;;;;;;;;5054920;28;20035;-63
2022/08/13 14:29:17;;;;;;;10.82;9.63;;;;;;;;;;5055138;28;20105;-63
2022/08/13 14:31:43;;;;;;;10.57;9.68;;;;;;;;;;5054878;28;20388;-63
2022/08/13 14:34:10;;;;;;;11.00;8.88;;;;;;;;;;5053317;28;20021;-62
2022/08/13 14:36:36;;;;;;;9.82;9.07;;;;;;;;;;5055012;28;20445;-63
2022/08/13 14:39:03;;;;;;;13.05;11.02;;;;;;;;;;5054324;28;20029;-62
2022/08/13 14:41:28;;;;;;;11.20;10.05;;;;;;;;;;5054890;28;20372;-63
2022/08/13 14:43:54;;;;;;;10.50;9.60;;;;;;;;;;5054273;28;20025;-63
2022/08/13 14:46:20;;;;;;;11.27;10.27;;;;;;;;;;5054537;28;20096;-63
2022/08/13 14:48:45;;;;;;;10.45;9.13;;;;;;;;;;5054473;28;20086;-63